Time;durP1;ratioP1;P1;durP2;ratioP2;P2;SDS_P1;SDS_P2;PMS_P1;PMS_P2;Temp;Humidity;BMP_temperature;BMP_pressure;BME280_temperature;BME280_humidity;BME280_pressure;Samples;Min_cycle;Max_cycle;Signal;HPM_P1;HPM_P2
2022/06/16 00:00:34;;;;;;;6.47;3.33;;;17.90;65.30;;;;;;5031892;28;20104;-86
2022/06/16 00:03:04;;;;;;;9.40;3.25;;;17.90;65.30;;;;;;5029499;28;20046;-87
2022/06/16 00:05:34;;;;;;;7.03;3.25;;;17.90;65.40;;;;;;5029742;28;20096;-87
2022/06/16 00:08:06;;;;;;;10.52;3.30;;;17.90;65.40;;;;;;5031200;28;20434;-87
2022/06/16 00:10:35;;;;;;;6.30;3.20;;;17.80;65.50;;;;;;5034023;28;20048;-87
2022/06/16 00:13:02;;;;;;;11.00;3.05;;;17.80;65.50;;;;;;5034471;28;20053;-87
2022/06/16 00:15:30;;;;;;;7.03;3.60;;;17.70;65.60;;;;;;5033675;28;20053;-87
2022/06/16 00:17:58;;;;;;;6.53;3.28;;;17.70;65.60;;;;;;5033690;28;20096;-87
2022/06/16 00:20:26;;;;;;;6.68;3.20;;;17.60;65.70;;;;;;5033243;28;20054;-86
2022/06/16 00:22:53;;;;;;;5.22;3.08;;;17.60;65.70;;;;;;5033757;28;20038;-87
2022/06/16 00:25:19;;;;;;;5.45;3.10;;;17.50;65.80;;;;;;5033687;28;20057;-87
2022/06/16 00:27:47;;;;;;;6.85;3.20;;;17.50;65.80;;;;;;5031251;28;20460;-87
2022/06/16 00:30:14;;;;;;;6.00;3.05;;;17.40;65.90;;;;;;5033494;28;20049;-86
2022/06/16 00:32:42;;;;;;;5.82;3.42;;;17.40;65.90;;;;;;5031905;28;20042;-86
2022/06/16 00:35:11;;;;;;;10.50;5.55;;;17.40;66.00;;;;;;5031596;28;20103;-86
2022/06/16 00:37:38;;;;;;;8.68;3.53;;;17.40;66.00;;;;;;5033414;28;20121;-86
2022/06/16 00:40:06;;;;;;;6.60;3.50;;;17.40;66.10;;;;;;5033422;28;20053;-87
2022/06/16 00:42:33;;;;;;;6.57;3.70;;;17.30;66.10;;;;;;5035256;28;20041;-86
2022/06/16 00:45:00;;;;;;;8.35;4.45;;;17.30;66.20;;;;;;5033309;28;20095;-87
2022/06/16 00:47:30;;;;;;;8.27;3.60;;;17.20;66.20;;;;;;5033236;28;20076;-87
2022/06/16 00:50:03;;;;;;;6.72;3.88;;;17.20;66.30;;;;;;5031201;28;20064;-87
2022/06/16 00:52:32;;;;;;;7.07;3.53;;;17.20;66.30;;;;;;5033259;28;20045;-87
2022/06/16 00:55:28;;;;;;;8.80;3.67;;;17.10;66.30;;;;;;5034074;28;20057;-86
2022/06/16 00:57:55;;;;;;;6.22;3.70;;;17.10;66.40;;;;;;5015770;28;20050;-87
2022/06/16 01:02:50;;;;;;;7.97;3.90;;;17.00;66.50;;;;;;5032968;28;20049;-86
2022/06/16 01:05:17;;;;;;;7.53;4.25;;;16.90;66.50;;;;;;5032525;28;20049;-86
2022/06/16 01:07:46;;;;;;;9.15;3.97;;;16.90;66.60;;;;;;5032875;28;20049;-87
2022/06/16 01:10:15;;;;;;;10.45;4.10;;;16.90;66.60;;;;;;5032286;28;20054;-86
2022/06/16 01:15:49;;;;;;;8.23;4.55;;;16.90;66.70;;;;;;5033712;28;20053;-86
2022/06/16 01:18:31;;;;;;;10.35;5.20;;;16.90;66.80;;;;;;5032241;28;20049;-87
2022/06/16 01:21:14;;;;;;;9.77;4.63;;;16.80;66.80;;;;;;5032390;28;20132;-87
2022/06/16 01:23:59;;;;;;;7.55;4.45;;;16.80;66.90;;;;;;5032495;28;20057;-87
2022/06/16 01:26:44;;;;;;;7.65;5.20;;;16.80;67.00;;;;;;5032204;28;20104;-87
2022/06/16 01:29:22;;;;;;;9.02;5.10;;;16.70;67.10;;;;;;5032371;28;20046;-86
2022/06/16 01:32:16;;;;;;;6.82;4.60;;;16.70;67.10;;;;;;5032391;28;20095;-87
2022/06/16 01:35:01;;;;;;;7.95;4.47;;;16.70;67.20;;;;;;5018825;28;20054;-87
2022/06/16 01:37:45;;;;;;;8.57;4.90;;;16.60;67.30;;;;;;5017750;28;20461;-87
2022/06/16 01:40:17;;;;;;;11.25;5.25;;;16.60;67.30;;;;;;5032312;28;20095;-87
2022/06/16 01:43:00;;;;;;;6.25;4.13;;;16.60;67.40;;;;;;5034159;28;20049;-87
2022/06/16 01:45:33;;;;;;;7.05;5.10;;;16.50;67.50;;;;;;5033576;28;20460;-86
2022/06/16 01:48:01;;;;;;;8.07;5.00;;;16.50;67.50;;;;;;5031637;28;20046;-86
2022/06/16 01:50:36;;;;;;;9.27;4.80;;;16.50;67.60;;;;;;5030323;28;20049;-86
2022/06/16 01:53:17;;;;;;;7.32;4.45;;;16.40;67.60;;;;;;5030483;28;20045;-87
2022/06/16 01:55:53;;;;;;;10.95;5.65;;;16.40;67.70;;;;;;5032064;28;20079;-87
2022/06/16 01:58:28;;;;;;;6.95;5.00;;;16.40;67.80;;;;;;5016007;28;20103;-86
2022/06/16 02:00:59;;;;;;;10.10;5.30;;;16.40;67.80;;;;;;5029851;28;20099;-85
2022/06/16 02:03:35;;;;;;;13.98;4.95;;;16.40;67.90;;;;;;5033014;28;20100;-86
2022/06/16 02:06:12;;;;;;;10.90;5.65;;;16.30;67.90;;;;;;5031712;28;20469;-86
2022/06/16 02:08:44;;;;;;;11.35;5.75;;;16.30;68.00;;;;;;5030082;28;20046;-86
2022/06/16 02:11:13;;;;;;;11.93;6.18;;;16.30;68.10;;;;;;5031575;28;20045;-86
2022/06/16 02:14:22;;;;;;;8.52;5.38;;;16.20;68.20;;;;;;5031623;28;21936;-86
2022/06/16 02:16:51;;;;;;;11.95;5.82;;;16.30;68.30;;;;;;4996219;28;20498;-86
2022/06/16 02:19:21;;;;;;;10.93;5.45;;;16.20;68.30;;;;;;4992803;28;20046;-87
2022/06/16 02:21:50;;;;;;;8.27;5.43;;;16.20;68.30;;;;;;5007462;28;20484;-86
2022/06/16 02:24:20;;;;;;;9.88;5.90;;;16.20;68.40;;;;;;4986558;28;20530;-87
2022/06/16 02:26:49;;;;;;;11.85;6.90;;;16.20;68.40;;;;;;5004645;28;20050;-86
2022/06/16 02:29:38;;;;;;;11.02;6.30;;;16.20;68.40;;;;;;5007717;28;20045;-87
2022/06/16 02:32:26;;;;;;;8.60;5.50;;;16.10;68.50;;;;;;5002380;28;20054;-87
2022/06/16 02:35:14;;;;;;;9.43;5.63;;;16.10;68.50;;;;;;4993889;28;20046;-87
2022/06/16 02:37:49;;;;;;;11.30;6.70;;;16.10;68.50;;;;;;4993845;28;20474;-86
2022/06/16 02:40:33;;;;;;;10.75;7.03;;;16.00;68.50;;;;;;4993093;28;20042;-86
2022/06/16 02:43:19;;;;;;;10.25;5.95;;;16.00;68.60;;;;;;5009874;28;20461;-87
2022/06/16 02:46:01;;;;;;;11.00;6.25;;;16.00;68.60;;;;;;5006436;28;20469;-86
2022/06/16 02:48:39;;;;;;;9.95;5.47;;;16.00;68.70;;;;;;5006241;28;20053;-87
2022/06/16 02:51:18;;;;;;;9.85;5.43;;;15.90;68.70;;;;;;5018416;28;20502;-87
2022/06/16 02:54:08;;;;;;;8.95;6.38;;;15.90;68.70;;;;;;5030713;28;20468;-87
2022/06/16 02:56:41;;;;;;;11.82;6.20;;;15.90;68.80;;;;;;5030909;28;20053;-86
2022/06/16 02:59:15;;;;;;;14.75;7.47;;;15.90;68.80;;;;;;5030429;28;20099;-86
2022/06/16 03:01:43;;;;;;;12.02;6.68;;;15.90;68.90;;;;;;5030801;28;20049;-86
2022/06/16 03:04:14;;;;;;;10.27;6.35;;;15.90;69.00;;;;;;5030862;28;20081;-87
2022/06/16 03:06:42;;;;;;;9.30;6.57;;;15.90;69.00;;;;;;5032701;28;20073;-87
2022/06/16 03:09:10;;;;;;;12.30;6.43;;;15.80;69.10;;;;;;5029304;28;20457;-87
2022/06/16 03:11:38;;;;;;;10.48;6.63;;;15.80;69.20;;;;;;5029147;28;20456;-87
2022/06/16 03:14:05;;;;;;;15.13;7.05;;;15.80;69.20;;;;;;5030296;28;20045;-86
2022/06/16 03:16:32;;;;;;;12.57;6.85;;;15.80;69.20;;;;;;5030766;28;20045;-87
2022/06/16 03:18:59;;;;;;;8.02;6.45;;;15.70;69.20;;;;;;5030138;28;20051;-86
2022/06/16 03:21:26;;;;;;;10.02;6.50;;;15.70;69.30;;;;;;5031669;28;20494;-87
2022/06/16 03:23:53;;;;;;;11.88;6.47;;;15.70;69.30;;;;;;5030519;28;20403;-86
2022/06/16 03:26:20;;;;;;;11.73;6.95;;;15.70;69.30;;;;;;5028469;28;20462;-86
2022/06/16 03:28:48;;;;;;;13.07;6.32;;;15.60;69.30;;;;;;5030131;28;20044;-87
2022/06/16 03:31:15;;;;;;;8.40;6.53;;;15.60;69.30;;;;;;5030572;28;20052;-86
2022/06/16 03:33:42;;;;;;;10.27;6.50;;;15.60;69.30;;;;;;5032308;28;20041;-86
2022/06/16 03:36:13;;;;;;;10.77;6.35;;;15.50;69.40;;;;;;5030382;28;20103;-86
2022/06/16 03:38:42;;;;;;;9.30;5.68;;;15.50;69.40;;;;;;5029178;28;20042;-86
2022/06/16 03:41:10;;;;;;;10.52;6.80;;;15.50;69.50;;;;;;5030248;28;20403;-87
2022/06/16 03:43:38;;;;;;;11.45;7.10;;;15.50;69.50;;;;;;5034084;28;20045;-86
2022/06/16 03:46:05;;;;;;;15.63;8.25;;;15.40;69.50;;;;;;5033896;28;20132;-86
2022/06/16 03:48:39;;;;;;;9.75;6.63;;;15.40;69.50;;;;;;5035223;28;20565;-87
2022/06/16 03:51:07;;;;;;;10.30;7.53;;;15.40;69.60;;;;;;5032657;28;20111;-87
2022/06/16 03:53:34;;;;;;;12.52;6.28;;;15.40;69.60;;;;;;5034210;28;20049;-86
2022/06/16 03:56:02;;;;;;;9.75;6.85;;;15.40;69.60;;;;;;5034171;28;20512;-86
2022/06/16 03:58:29;;;;;;;13.23;7.05;;;15.40;69.60;;;;;;5033899;28;20049;-87
2022/06/16 04:00:56;;;;;;;10.23;7.18;;;15.40;69.60;;;;;;5035451;28;20050;-86
2022/06/16 04:06:10;;;;;;;12.57;7.25;;;15.30;69.70;;;;;;5032635;28;20119;-86
2022/06/16 04:08:38;;;;;;;11.48;7.78;;;15.30;69.70;;;;;;5033890;28;20563;-87
2022/06/16 04:13:54;;;;;;;11.57;8.05;;;15.30;69.70;;;;;;5034138;28;20049;-87
2022/06/16 04:16:20;;;;;;;11.73;8.15;;;15.30;69.80;;;;;;5018271;28;20458;-86
2022/06/16 04:18:47;;;;;;;14.65;9.70;;;15.30;69.90;;;;;;5035733;28;20049;-86
2022/06/16 04:21:15;;;;;;;12.88;9.55;;;15.20;70.00;;;;;;5033695;28;20053;-86
2022/06/16 04:23:41;;;;;;;13.70;9.10;;;15.20;70.10;;;;;;5033643;28;20457;-86
2022/06/16 04:26:08;;;;;;;12.93;9.07;;;15.20;70.20;;;;;;5031529;28;20107;-87
2022/06/16 04:28:35;;;;;;;13.90;9.77;;;15.20;70.40;;;;;;5032206;28;20477;-86
2022/06/16 04:31:02;;;;;;;14.27;9.70;;;15.20;70.40;;;;;;5034159;28;20050;-87
2022/06/16 04:33:29;;;;;;;11.18;9.00;;;15.20;70.50;;;;;;5035133;28;20045;-86
2022/06/16 04:35:56;;;;;;;12.45;9.52;;;15.20;70.50;;;;;;5033541;28;20103;-86
2022/06/16 04:38:23;;;;;;;16.92;9.77;;;15.20;70.60;;;;;;5033301;28;20053;-86
2022/06/16 04:40:50;;;;;;;12.93;9.68;;;15.20;70.60;;;;;;5032953;28;20046;-86
2022/06/16 04:43:17;;;;;;;12.13;9.52;;;15.20;70.70;;;;;;5032390;28;20049;-86
2022/06/16 04:45:44;;;;;;;15.15;10.52;;;15.20;70.70;;;;;;5034879;28;20056;-86
2022/06/16 04:48:11;;;;;;;14.43;10.25;;;15.20;70.80;;;;;;5033220;28;20568;-86
2022/06/16 04:50:40;;;;;;;13.98;9.15;;;15.20;70.80;;;;;;5033313;28;20050;-86
2022/06/16 04:53:07;;;;;;;15.77;11.30;;;15.20;70.90;;;;;;5032547;28;20048;-86
2022/06/16 04:55:35;;;;;;;14.40;10.75;;;15.20;71.00;;;;;;5032826;28;20045;-86
2022/06/16 04:58:03;;;;;;;13.95;9.15;;;15.30;71.10;;;;;;5033603;28;20049;-86
2022/06/16 05:00:30;;;;;;;16.08;11.32;;;15.30;71.10;;;;;;5032668;28;20080;-87
2022/06/16 05:03:04;;;;;;;19.55;12.18;;;15.30;71.20;;;;;;5032844;28;20095;-86
2022/06/16 05:05:31;;;;;;;15.13;9.88;;;15.30;71.30;;;;;;5031793;28;20046;-86
2022/06/16 05:07:58;;;;;;;15.18;9.93;;;15.30;71.40;;;;;;5031265;28;20448;-87
2022/06/16 05:10:25;;;;;;;13.00;9.85;;;15.30;71.50;;;;;;5032465;28;20050;-87
2022/06/16 05:12:52;;;;;;;13.43;9.93;;;15.30;71.60;;;;;;5034355;28;20053;-86
2022/06/16 05:15:19;;;;;;;15.10;10.35;;;15.30;71.60;;;;;;5032045;28;20103;-86
2022/06/16 05:17:46;;;;;;;15.95;11.52;;;15.30;71.60;;;;;;5032777;28;20045;-87
2022/06/16 05:20:13;;;;;;;18.55;11.95;;;15.40;71.70;;;;;;5032625;28;20050;-87
2022/06/16 05:22:40;;;;;;;12.60;9.70;;;15.40;71.80;;;;;;5031067;28;20065;-87
2022/06/16 05:25:07;;;;;;;19.25;13.18;;;15.40;71.80;;;;;;5030918;28;20058;-87
2022/06/16 05:27:34;;;;;;;15.95;11.25;;;15.40;71.80;;;;;;5034321;28;20057;-86
2022/06/16 05:30:02;;;;;;;15.40;10.35;;;15.50;71.90;;;;;;5031543;28;20107;-87
2022/06/16 05:32:29;;;;;;;15.43;10.80;;;15.50;72.00;;;;;;5032390;28;20050;-87
2022/06/16 05:34:56;;;;;;;15.57;10.60;;;15.50;72.00;;;;;;5032406;28;20049;-86
2022/06/16 05:37:23;;;;;;;17.67;13.30;;;15.60;72.00;;;;;;5032441;28;20066;-87
2022/06/16 05:39:50;;;;;;;15.02;10.25;;;15.60;72.10;;;;;;5033652;28;20046;-87
2022/06/16 05:42:17;;;;;;;16.70;10.95;;;15.70;72.20;;;;;;5032481;28;20060;-87
2022/06/16 05:44:45;;;;;;;14.43;9.75;;;15.70;72.10;;;;;;5031228;28;20041;-87
2022/06/16 05:47:12;;;;;;;17.55;10.18;;;15.80;72.20;;;;;;5030611;28;20080;-86
2022/06/16 05:49:40;;;;;;;16.85;13.23;;;15.80;72.10;;;;;;5032121;28;20399;-87
2022/06/16 05:52:13;;;;;;;17.02;12.93;;;15.80;72.10;;;;;;5032125;28;20045;-87
2022/06/16 05:54:41;;;;;;;;;;;15.90;72.20;;;;;;5034076;28;20049;-87
2022/06/16 05:57:08;;;;;;;13.10;10.10;;;15.90;72.20;;;;;;5031847;28;20344;-87
2022/06/16 05:59:37;;;;;;;19.33;11.60;;;16.00;72.20;;;;;;5029175;28;20103;-87
2022/06/16 06:02:07;;;;;;;15.73;10.23;;;16.00;72.20;;;;;;5030134;28;20042;-87
2022/06/16 06:04:34;;;;;;;12.38;9.77;;;16.00;72.20;;;;;;5031591;28;20037;-87
2022/06/16 06:07:02;;;;;;;14.98;10.68;;;16.10;72.20;;;;;;5031714;28;20107;-89
2022/06/16 06:18:02;;;;;;;15.63;9.93;;;16.40;72.20;;;;;;5031468;28;20468;-87
2022/06/16 06:20:29;;;;;;;15.80;9.10;;;16.40;72.10;;;;;;5031447;28;20072;-87
2022/06/16 06:22:56;;;;;;;16.02;10.45;;;16.40;72.10;;;;;;5029983;28;20461;-88
2022/06/16 06:25:24;;;;;;;11.65;8.77;;;16.50;72.10;;;;;;5030070;28;20041;-86
2022/06/16 06:27:52;;;;;;;14.30;11.00;;;16.60;72.10;;;;;;5032890;28;20085;-86
2022/06/16 06:30:21;;;;;;;15.02;11.13;;;16.70;72.00;;;;;;5030329;28;20041;-86
2022/06/16 06:32:49;;;;;;;14.77;9.77;;;16.70;72.10;;;;;;5030763;28;20079;-86
2022/06/16 06:35:16;;;;;;;12.45;9.95;;;16.80;72.10;;;;;;5028360;28;20513;-86
2022/06/16 06:37:43;;;;;;;11.90;9.82;;;16.90;72.10;;;;;;5029439;28;20041;-86
2022/06/16 06:40:28;;;;;;;15.85;9.57;;;16.90;72.10;;;;;;5030348;28;20104;-86
2022/06/16 06:42:55;;;;;;;18.90;14.85;;;17.00;72.10;;;;;;5028501;28;20052;-86
2022/06/16 06:45:23;;;;;;;17.83;13.82;;;17.10;72.10;;;;;;5030907;28;20045;-86
2022/06/16 06:47:50;;;;;;;21.73;14.63;;;17.10;72.10;;;;;;5033511;28;20099;-86
2022/06/16 06:50:24;;;;;;;16.83;11.85;;;17.20;72.30;;;;;;5030582;28;20053;-86
2022/06/16 06:52:52;;;;;;;19.67;14.43;;;17.30;72.30;;;;;;5030125;28;20045;-86
2022/06/16 06:55:20;;;;;;;16.42;11.88;;;17.40;72.30;;;;;;5014545;28;20081;-86
2022/06/16 06:57:49;;;;;;;18.38;11.73;;;17.40;72.30;;;;;;5031967;28;20118;-86
2022/06/16 07:00:17;;;;;;;15.88;12.23;;;17.40;72.30;;;;;;5029205;28;20053;-86
2022/06/16 07:02:44;;;;;;;16.95;12.75;;;17.50;72.30;;;;;;5028306;28;20045;-86
2022/06/16 07:05:11;;;;;;;18.58;14.38;;;17.60;72.40;;;;;;5028480;28;20099;-86
2022/06/16 07:07:45;;;;;;;15.90;13.05;;;17.70;72.40;;;;;;5029509;28;20119;-86
2022/06/16 07:10:13;;;;;;;14.85;11.18;;;17.80;72.40;;;;;;5028970;28;20518;-86
2022/06/16 07:12:40;;;;;;;15.60;12.13;;;17.90;72.30;;;;;;5031813;28;20061;-86
2022/06/16 07:15:08;;;;;;;18.52;11.73;;;17.90;72.30;;;;;;5029973;28;20046;-85
2022/06/16 07:17:34;;;;;;;14.57;10.80;;;17.90;72.30;;;;;;5029449;28;20057;-86
2022/06/16 07:20:02;;;;;;;14.90;11.27;;;18.00;72.20;;;;;;5029716;28;20045;-87
2022/06/16 07:22:29;;;;;;;16.73;10.95;;;18.10;72.20;;;;;;5029790;28;20041;-87
2022/06/16 07:24:56;;;;;;;15.88;10.55;;;18.20;72.10;;;;;;5031054;28;20127;-87
2022/06/16 07:27:24;;;;;;;14.48;10.65;;;18.20;72.00;;;;;;5030547;28;20111;-87
2022/06/16 07:29:52;;;;;;;14.93;11.20;;;18.30;72.00;;;;;;5029957;28;20068;-88
2022/06/16 07:32:20;;;;;;;15.18;10.38;;;18.40;72.00;;;;;;5028749;28;20056;-86
2022/06/16 07:34:48;;;;;;;18.30;13.65;;;18.40;71.90;;;;;;5029417;28;20037;-86
2022/06/16 07:37:15;;;;;;;12.95;10.43;;;18.50;71.90;;;;;;5029693;28;20524;-87
2022/06/16 07:39:42;;;;;;;13.88;9.82;;;18.60;71.90;;;;;;5031610;28;20053;-87
2022/06/16 07:42:09;;;;;;;13.07;9.40;;;18.70;71.80;;;;;;5028350;28;20560;-87
2022/06/16 07:44:37;;;;;;;13.20;9.20;;;18.80;71.70;;;;;;5028124;28;20132;-86
2022/06/16 07:47:05;;;;;;;15.70;8.95;;;18.90;71.60;;;;;;5029451;28;20445;-87
2022/06/16 07:49:33;;;;;;;11.57;9.05;;;18.90;71.50;;;;;;5029338;28;20079;-87
2022/06/16 07:52:00;;;;;;;13.60;9.10;;;19.00;71.30;;;;;;5030756;28;20457;-87
2022/06/16 07:54:29;;;;;;;10.77;8.25;;;19.10;71.20;;;;;;5030832;28;20474;-86
2022/06/16 07:57:20;;;;;;;16.17;7.18;;;19.20;71.10;;;;;;5027859;28;20104;-87
2022/06/16 07:59:55;;;;;;;10.80;7.38;;;19.30;70.90;;;;;;5028114;28;20084;-89
2022/06/16 08:02:22;;;;;;;11.65;7.07;;;19.40;70.70;;;;;;5029624;28;20048;-86
2022/06/16 08:04:50;;;;;;;9.98;6.93;;;19.50;70.50;;;;;;5029586;28;20045;-87
2022/06/16 08:07:17;;;;;;;10.25;6.53;;;19.70;70.40;;;;;;5029401;28;20460;-86
2022/06/16 08:09:44;;;;;;;11.20;7.63;;;19.70;70.20;;;;;;5028462;28;20049;-87
2022/06/16 08:12:12;;;;;;;7.82;5.70;;;19.90;70.00;;;;;;5026006;28;20480;-88
2022/06/16 08:14:42;;;;;;;10.70;5.65;;;19.90;69.90;;;;;;5028823;28;20049;-88
2022/06/16 08:17:17;;;;;;;8.38;5.85;;;20.00;69.70;;;;;;5027056;28;20136;-88
2022/06/16 08:19:44;;;;;;;8.43;5.45;;;20.10;69.40;;;;;;5026711;28;20055;-88
2022/06/16 08:22:12;;;;;;;9.25;5.15;;;20.30;69.30;;;;;;5027065;28;20076;-87
2022/06/16 08:24:40;;;;;;;8.77;5.13;;;20.40;69.10;;;;;;5030260;28;20513;-88
2022/06/16 08:27:08;;;;;;;12.85;8.90;;;20.40;68.90;;;;;;5027014;28;20053;-88
2022/06/16 08:29:37;;;;;;;9.38;5.07;;;20.60;68.70;;;;;;5028903;28;20052;-89
2022/06/16 08:32:04;;;;;;;7.88;5.03;;;20.70;68.50;;;;;;5030581;28;20052;-87
2022/06/16 08:34:31;;;;;;;9.35;4.72;;;20.80;68.30;;;;;;5030310;28;20506;-87
2022/06/16 08:36:58;;;;;;;9.15;4.75;;;20.90;68.10;;;;;;5031885;28;20053;-87
2022/06/16 08:39:25;;;;;;;9.50;5.15;;;20.90;67.90;;;;;;5032342;28;20457;-87
2022/06/16 08:42:16;;;;;;;10.27;4.68;;;21.10;67.60;;;;;;5029209;28;20061;-87
2022/06/16 08:45:01;;;;;;;7.80;4.60;;;21.10;67.40;;;;;;5030294;28;20559;-88
2022/06/16 08:47:36;;;;;;;9.80;4.55;;;21.30;67.10;;;;;;5029854;28;20037;-87
2022/06/16 08:50:54;;;;;;;8.63;4.90;;;21.40;66.90;;;;;;5030503;28;20422;-87
2022/06/16 08:53:41;;;;;;;7.32;4.20;;;21.50;66.50;;;;;;5030994;28;20045;-88
2022/06/16 08:56:21;;;;;;;13.20;4.53;;;21.60;66.10;;;;;;5031009;28;20049;-87
2022/06/16 08:59:17;;;;;;;9.30;3.75;;;21.70;65.70;;;;;;5030942;28;20091;-88
2022/06/16 09:02:05;;;;;;;9.27;3.72;;;21.80;65.40;;;;;;5030410;28;20595;-87
2022/06/16 09:04:40;;;;;;;7.28;3.90;;;21.90;65.00;;;;;;5016857;28;20042;-88
2022/06/16 09:07:25;;;;;;;7.25;3.97;;;22.00;64.60;;;;;;5030628;28;20053;-88
2022/06/16 09:10:16;;;;;;;8.57;3.78;;;22.10;64.20;;;;;;5027787;28;20041;-88
2022/06/16 09:13:03;;;;;;;8.63;3.85;;;22.20;63.80;;;;;;5031470;28;20049;-88
2022/06/16 09:15:42;;;;;;;7.53;3.65;;;22.30;63.50;;;;;;5029818;28;20477;-87
2022/06/16 09:18:41;;;;;;;7.50;3.40;;;22.40;63.10;;;;;;5030051;28;20057;-87
2022/06/16 09:21:26;;;;;;;8.57;3.65;;;22.40;62.80;;;;;;4949237;28;20102;-88
2022/06/16 09:24:11;;;;;;;7.22;3.60;;;22.50;62.40;;;;;;4947685;28;20051;-89
2022/06/16 09:27:09;;;;;;;9.32;3.78;;;22.60;62.10;;;;;;4968454;28;20476;-87
2022/06/16 09:29:51;;;;;;;8.55;3.40;;;22.70;61.80;;;;;;4970277;28;20455;-88
2022/06/16 09:32:34;;;;;;;7.38;3.42;;;22.80;61.50;;;;;;4968159;28;20463;-88
2022/06/16 09:35:33;;;;;;;8.18;3.20;;;22.80;61.20;;;;;;4983362;28;20055;-89
2022/06/16 09:38:02;;;;;;;7.07;3.13;;;22.90;60.90;;;;;;4968325;28;20054;-88
2022/06/16 09:40:37;;;;;;;7.05;3.42;;;23.00;60.60;;;;;;4968146;28;20047;-88
2022/06/16 09:43:42;;;;;;;6.30;3.00;;;23.10;60.40;;;;;;4970891;28;20086;-89
2022/06/16 09:46:23;;;;;;;8.82;3.38;;;23.10;60.20;;;;;;4968514;28;20417;-88
2022/06/16 09:49:20;;;;;;;6.13;3.40;;;23.20;59.80;;;;;;4968444;28;20477;-88
2022/06/16 09:52:16;;;;;;;5.75;3.28;;;23.30;59.60;;;;;;4954468;28;20086;-89
2022/06/16 09:54:55;;;;;;;7.32;3.67;;;23.40;59.30;;;;;;4972425;28;20124;-88
2022/06/16 09:57:31;;;;;;;8.15;3.67;;;23.40;59.10;;;;;;4983432;28;20045;-88
2022/06/16 10:00:19;;;;;;;8.57;3.83;;;23.50;58.80;;;;;;5028569;28;20103;-89
2022/06/16 10:02:52;;;;;;;7.85;3.40;;;23.60;58.50;;;;;;5027744;28;20533;-88
2022/06/16 10:05:35;;;;;;;8.88;3.45;;;23.70;58.20;;;;;;5028940;28;20041;-89
2022/06/16 10:08:15;;;;;;;8.88;3.25;;;23.80;58.00;;;;;;5029059;28;20532;-90
2022/06/16 10:10:52;;;;;;;8.13;3.30;;;23.80;57.70;;;;;;5028870;28;20056;-89
2022/06/16 10:13:36;;;;;;;9.32;3.03;;;23.90;57.50;;;;;;5013634;28;20914;-89
2022/06/16 10:16:13;;;;;;;8.57;3.05;;;23.90;57.20;;;;;;5028842;28;20045;-88
2022/06/16 10:18:41;;;;;;;6.22;2.90;;;24.00;56.90;;;;;;5032143;28;20049;-88
2022/06/16 10:21:09;;;;;;;8.65;3.15;;;24.10;56.70;;;;;;5028497;28;20510;-89
2022/06/16 10:23:47;;;;;;;11.43;3.53;;;24.20;56.50;;;;;;5028294;28;20053;-88
2022/06/16 10:26:14;;;;;;;8.68;3.38;;;24.30;56.20;;;;;;5028316;28;20113;-89
2022/06/16 10:29:03;;;;;;;7.97;2.85;;;24.30;56.00;;;;;;5028162;28;20053;-89
2022/06/16 10:31:35;;;;;;;6.90;2.95;;;24.40;55.80;;;;;;5014590;28;20042;-90
2022/06/16 10:34:04;;;;;;;6.77;3.03;;;24.40;55.60;;;;;;5031005;28;20049;-88
2022/06/16 10:36:32;;;;;;;7.53;3.13;;;24.50;55.50;;;;;;5030397;28;20052;-89
2022/06/16 10:39:08;;;;;;;6.40;2.90;;;24.50;55.30;;;;;;5028334;28;20464;-88
2022/06/16 10:41:54;;;;;;;7.03;2.72;;;24.60;55.00;;;;;;5026840;28;20048;-90
2022/06/16 10:44:23;;;;;;;7.05;2.92;;;24.70;54.80;;;;;;5027872;28;20049;-92
2022/06/16 10:47:03;;;;;;;9.95;2.67;;;24.80;54.60;;;;;;5028477;28;20045;-88
2022/06/16 10:49:39;;;;;;;8.07;3.17;;;24.80;54.40;;;;;;5013870;28;20069;-90
2022/06/16 10:52:20;;;;;;;8.98;3.05;;;24.90;54.20;;;;;;5061527;28;20046;-90
2022/06/16 10:55:08;;;;;;;7.70;2.40;;;24.90;54.00;;;;;;5028373;28;20103;-89
2022/06/16 10:57:43;;;;;;;5.43;2.60;;;25.00;53.70;;;;;;5030340;28;20045;-89
2022/06/16 11:00:18;;;;;;;7.43;2.60;;;25.10;53.50;;;;;;5027971;28;20064;-89
2022/06/16 11:02:57;;;;;;;9.55;2.60;;;25.20;53.30;;;;;;5026597;28;20057;-89
2022/06/16 11:05:26;;;;;;;8.75;2.72;;;25.30;53.10;;;;;;5027955;28;20041;-88
2022/06/16 11:08:03;;;;;;;6.25;2.50;;;25.30;52.90;;;;;;5027761;28;20046;-91
2022/06/16 11:10:35;;;;;;;5.70;2.47;;;25.40;52.60;;;;;;5028062;28;20042;-88
2022/06/16 11:13:03;;;;;;;8.52;2.50;;;25.40;52.40;;;;;;5028723;28;20049;-89
2022/06/16 11:15:40;;;;;;;5.07;2.45;;;25.50;52.20;;;;;;5029557;28;20046;-90
2022/06/16 11:18:11;;;;;;;4.47;2.30;;;25.50;52.00;;;;;;5027684;28;20050;-89
2022/06/16 11:20:48;;;;;;;5.00;2.70;;;25.60;51.80;;;;;;5027635;28;20053;-90
2022/06/16 11:23:21;;;;;;;7.53;2.80;;;25.70;51.70;;;;;;5026428;28;20053;-88
2022/06/16 11:26:05;;;;;;;7.22;2.65;;;25.80;51.50;;;;;;5027638;28;20107;-88
2022/06/16 11:28:41;;;;;;;5.45;2.60;;;25.80;51.40;;;;;;5044817;28;20169;-89
2022/06/16 11:31:12;;;;;;;5.65;2.53;;;25.90;51.20;;;;;;5029435;28;20049;-89
2022/06/16 11:34:16;;;;;;;6.07;2.53;;;25.90;51.10;;;;;;5027637;28;20053;-89
2022/06/16 11:37:06;;;;;;;7.10;2.60;;;26.00;51.00;;;;;;5027015;28;20046;-89
2022/06/16 11:40:00;;;;;;;5.25;2.30;;;26.10;50.90;;;;;;5029914;28;20132;-88
2022/06/16 11:42:45;;;;;;;;;;;26.20;50.70;;;;;;5031047;28;20064;-88
2022/06/16 11:45:30;;;;;;;4.60;2.15;;;26.20;50.50;;;;;;5027371;28;19932;-88
2022/06/16 11:48:18;;;;;;;10.05;2.40;;;26.30;50.20;;;;;;5027170;28;20053;-89
2022/06/16 11:50:57;;;;;;;6.65;2.30;;;26.30;50.10;;;;;;5027659;28;20049;-91
2022/06/16 11:53:27;;;;;;;4.88;2.17;;;26.40;49.90;;;;;;5027366;28;20052;-88
2022/06/16 11:56:01;;;;;;;8.43;2.50;;;26.40;49.80;;;;;;5026933;28;20048;-90
2022/06/16 11:58:53;;;;;;;4.47;2.20;;;26.50;49.70;;;;;;5027089;28;20419;-90
2022/06/16 12:01:45;;;;;;;5.90;2.28;;;26.50;49.60;;;;;;5012229;28;20041;-89
2022/06/16 12:04:41;;;;;;;5.85;2.63;;;26.60;49.50;;;;;;5031221;28;20045;-89
2022/06/16 12:07:21;;;;;;;5.72;2.20;;;26.60;49.20;;;;;;5031543;28;20505;-89
2022/06/16 12:10:00;;;;;;;4.85;2.20;;;26.70;49.00;;;;;;5031223;28;20108;-90
2022/06/16 12:12:30;;;;;;;4.72;2.30;;;26.70;48.80;;;;;;5034527;28;20548;-90
2022/06/16 12:15:09;;;;;;;6.38;2.60;;;26.80;48.60;;;;;;5031100;28;20096;-89
2022/06/16 12:18:07;;;;;;;8.93;2.50;;;26.80;48.50;;;;;;5030784;28;20425;-90
2022/06/16 12:20:49;;;;;;;6.22;2.33;;;26.90;48.40;;;;;;5030798;28;20050;-89
2022/06/16 12:23:33;;;;;;;7.90;2.13;;;26.90;48.20;;;;;;5029909;28;20046;-88
2022/06/16 12:26:19;;;;;;;9.88;2.35;;;26.90;48.10;;;;;;5030091;28;20465;-89
2022/06/16 12:29:05;;;;;;;6.80;2.30;;;27.00;47.90;;;;;;5030765;28;20053;-89
2022/06/16 12:31:53;;;;;;;5.20;2.38;;;27.00;47.90;;;;;;5016634;28;20042;-89
2022/06/16 12:34:29;;;;;;;4.22;2.00;;;27.00;47.80;;;;;;5015318;28;20042;-89
2022/06/16 12:37:02;;;;;;;5.45;2.25;;;27.10;47.70;;;;;;5030470;28;20057;-90
2022/06/16 12:39:55;;;;;;;3.95;2.00;;;27.10;47.60;;;;;;5034137;28;20076;-89
2022/06/16 12:42:26;;;;;;;4.72;2.00;;;27.10;47.40;;;;;;5032129;28;20124;-90
2022/06/16 12:44:59;;;;;;;5.80;2.13;;;27.20;47.30;;;;;;5030680;28;20502;-89
2022/06/16 12:47:35;;;;;;;5.47;2.17;;;27.30;47.20;;;;;;5030442;28;20045;-90
2022/06/16 12:50:18;;;;;;;6.15;2.20;;;27.30;47.00;;;;;;5030465;28;20060;-90
2022/06/16 12:52:54;;;;;;;4.53;2.10;;;27.30;46.90;;;;;;5029257;28;20045;-89
2022/06/16 12:55:33;;;;;;;6.35;2.38;;;27.30;46.80;;;;;;5014593;28;20107;-90
2022/06/16 12:58:06;;;;;;;4.93;2.15;;;27.40;46.70;;;;;;5032588;28;20053;-89
2022/06/16 13:00:40;;;;;;;5.30;2.30;;;27.30;46.60;;;;;;5032514;28;20079;-89
2022/06/16 13:03:16;;;;;;;5.47;2.45;;;27.40;46.50;;;;;;5029910;28;20084;-89
2022/06/16 13:05:45;;;;;;;5.15;2.22;;;27.40;46.50;;;;;;5029288;28;20461;-90
2022/06/16 13:08:14;;;;;;;7.97;2.20;;;27.40;46.40;;;;;;5034804;28;20052;-89
2022/06/16 13:10:46;;;;;;;3.45;1.98;;;27.50;46.30;;;;;;5030185;28;20119;-89
2022/06/16 13:13:29;;;;;;;5.30;2.17;;;27.50;46.20;;;;;;5031340;28;20050;-88
2022/06/16 13:16:01;;;;;;;5.93;2.50;;;27.60;46.10;;;;;;5029351;28;20502;-88
2022/06/16 13:18:41;;;;;;;5.80;1.83;;;27.60;46.00;;;;;;5033963;28;20045;-88
2022/06/16 13:21:08;;;;;;;7.00;2.20;;;27.70;45.90;;;;;;5030326;28;20414;-88
2022/06/16 13:23:45;;;;;;;4.43;2.10;;;27.70;45.80;;;;;;5029703;28;20091;-89
2022/06/16 13:26:18;;;;;;;6.28;1.90;;;27.70;45.70;;;;;;5029776;28;20057;-87
2022/06/16 13:28:59;;;;;;;;;;;27.80;45.60;;;;;;5030437;28;20052;-89
2022/06/16 13:31:48;;;;;;;5.85;2.13;;;27.80;45.40;;;;;;5015156;28;19936;-88
2022/06/16 13:34:21;;;;;;;6.43;2.30;;;27.80;45.30;;;;;;5030740;28;20128;-88